America — WD15630 — position and weather

sailwx.info

Track history (hours):
 
Tides and Currents Weather Stations Pressure Air Temp Water Temp Dewpoint Dewpoint Depression Visibility Wind Speed Wind Dir Waves Ship Positions

America

Last reported at 2018-Jan-03 01:20 UTC. Time now 2018-Feb-25 15:23 UTC.
Position N 32°06' W 091°06'.
Warning: this ship's position is 53 days out of date.

Length 80 m; draft 2.4 m.

Type: Passenger vessel. MMSI: 367710540.

Date/timePositionNaut miles runAvg speedWind from/ knotsBaromVisibWave heightAir tempDewpointWater temp
2018-Jan-03 01:20N 32°06' W 091°06'2 7.0
2018-Jan-03 01:00N 32°08' W 091°04'5 9.9
2018-Jan-03 00:29N 32°11' W 090°60'612.8
2018-Jan-03 00:00N 32°17' W 090°57'5 9.9
2018-Jan-02 23:30N 32°21' W 090°53'0 0.6
2018-Jan-02 23:00N 32°21' W 090°53'0 0.0
2018-Jan-02 22:30N 32°21' W 090°53'0 0.0
2018-Jan-02 22:00N 32°21' W 090°53'0 0.0
2018-Jan-02 21:30N 32°21' W 090°53'0 0.0
2018-Jan-02 21:00N 32°21' W 090°53'0 0.0
2018-Jan-02 20:30N 32°21' W 090°53'0 0.0
2018-Jan-02 20:00N 32°21' W 090°53'0 0.0
2018-Jan-02 19:27N 32°21' W 090°53'0 0.0
2018-Jan-02 18:54N 32°21' W 090°53'0 0.0
2018-Jan-02 18:30N 32°21' W 090°53'0 0.0
2018-Jan-02 18:00N 32°21' W 090°53'0 0.0
2018-Jan-02 17:30N 32°21' W 090°53'0 0.0
2018-Jan-02 17:00N 32°21' W 090°53'0 0.0
2018-Jan-02 16:30N 32°21' W 090°53'0 0.0
2018-Jan-02 16:00N 32°21' W 090°53'0 0.0
2018-Jan-02 15:30N 32°21' W 090°53'0 0.0
2018-Jan-02 15:00N 32°21' W 090°53'0 0.0
2018-Jan-02 14:30N 32°21' W 090°53'0 0.0
2018-Jan-02 14:00N 32°21' W 090°53'0 0.0
2018-Jan-02 13:30N 32°21' W 090°53'0 0.5
2018-Jan-02 13:00N 32°21' W 090°53'3 5.1
2018-Jan-02 12:30N 32°19' W 090°55'3 5.7
2018-Jan-02 12:00N 32°17' W 090°57'3 5.5
2018-Jan-02 11:30N 32°14' W 090°59'3 5.8
2018-Jan-02 11:00N 32°12' W 090°60'4 7.0
2018-Jan-02 10:30N 32°08' W 091°00'2 4.5
2018-Jan-02 10:00N 32°07' W 091°03'2 4.4
2018-Jan-02 09:31N 32°08' W 091°06'6 6.3
2018-Jan-02 08:29N 32°02' W 091°04'4 6.6
2018-Jan-02 07:56N 31°59' W 091°07'4 7.5
2018-Jan-02 07:28N 31°58' W 091°11'  
2017-Dec-26 22:15N 32°06' W 091°06'2 8.2
2017-Dec-26 22:00N 32°08' W 091°05'5 8.8
2017-Dec-26 21:29N 32°09' W 091°00'611.7
2017-Dec-26 21:00N 32°15' W 090°59'611.6
2017-Dec-26 20:30N 32°19' W 090°54'2 4.2
2017-Dec-26 20:00N 32°21' W 090°53'0 0.0
2017-Dec-26 19:30N 32°21' W 090°53'0 0.0
2017-Dec-26 19:00N 32°21' W 090°53'0 0.0
2017-Dec-26 18:30N 32°21' W 090°53'0 0.0
2017-Dec-26 18:00N 32°21' W 090°53'0 0.0
2017-Dec-26 17:30N 32°21' W 090°53'0 0.0
2017-Dec-26 17:00N 32°21' W 090°53'0 0.0
2017-Dec-26 16:30N 32°21' W 090°53'0 0.0
2017-Dec-26 16:00N 32°21' W 090°53'0 0.0
2017-Dec-26 15:30N 32°21' W 090°53'0 0.0
2017-Dec-26 15:00N 32°21' W 090°53'0 0.0
2017-Dec-26 14:30N 32°21' W 090°53'0 0.0
2017-Dec-26 14:00N 32°21' W 090°53'0 0.0
2017-Dec-26 13:30N 32°21' W 090°53'0 0.0
2017-Dec-26 13:00N 32°21' W 090°53'0 0.0
2017-Dec-26 12:30N 32°21' W 090°53'0 0.0
2017-Dec-26 12:00N 32°21' W 090°53'0 0.0
2017-Dec-26 11:30N 32°21' W 090°53'0 0.0
2017-Dec-26 11:00N 32°21' W 090°53'0 0.0
2017-Dec-26 10:30N 32°21' W 090°53'0 0.0
2017-Dec-26 10:00N 32°21' W 090°53'0 0.0
2017-Dec-26 09:30N 32°21' W 090°53'0 0.0
2017-Dec-26 09:00N 32°21' W 090°53'0 0.0
2017-Dec-26 08:30N 32°21' W 090°53'0 0.0
2017-Dec-26 08:00N 32°21' W 090°53'0 0.0
2017-Dec-26 07:30N 32°21' W 090°53'0 0.0
2017-Dec-26 07:00N 32°21' W 090°53'0 0.0
2017-Dec-26 06:30N 32°21' W 090°53'0 0.0
2017-Dec-26 06:00N 32°21' W 090°53'0 0.0
2017-Dec-26 05:30N 32°21' W 090°53'0 0.0
2017-Dec-26 05:00N 32°21' W 090°53'0 0.0
2017-Dec-26 04:27N 32°21' W 090°53'0 0.0
2017-Dec-26 04:00N 32°21' W 090°53'0 0.0
2017-Dec-26 03:27N 32°21' W 090°53'0 0.0
2017-Dec-26 02:59N 32°21' W 090°53'0 0.0
2017-Dec-26 02:30N 32°21' W 090°53'0 0.0
2017-Dec-26 02:00N 32°21' W 090°53'0 0.0
2017-Dec-26 01:29N 32°21' W 090°53'0 0.0
2017-Dec-26 00:59N 32°21' W 090°53'0 0.0
2017-Dec-26 00:30N 32°21' W 090°53'0 0.0
2017-Dec-25 23:59N 32°21' W 090°53'0 0.0
2017-Dec-25 23:29N 32°21' W 090°53'0 0.0
2017-Dec-25 22:59N 32°21' W 090°53'0 0.0
2017-Dec-25 22:29N 32°21' W 090°53'0 0.0
2017-Dec-25 21:59N 32°21' W 090°53'0 0.3
2017-Dec-25 21:31N 32°21' W 090°53'4 7.5
2017-Dec-25 21:00N 32°18' W 090°56'4 8.9
2017-Dec-25 20:30N 32°14' W 090°59'5 9.2
2017-Dec-25 20:00N 32°10' W 091°00'6 7.0
2017-Dec-25 19:13N 32°08' W 091°06'  
Track history (hours):
 
Tides and Currents Weather Stations Pressure Air Temp Water Temp Dewpoint Dewpoint Depression Visibility Wind Speed Wind Dir Waves Ship Positions

America

Last reported at 2018-Jan-03 01:20 UTC. Time now 2018-Feb-25 15:23 UTC.
Position N 32°06' W 091°06'.
Warning: this ship's position is 53 days out of date.

Length 80 m; draft 2.4 m.

Type: Passenger vessel. MMSI: 367710540.

Date/timePositionNaut miles runAvg speedWind from/ knotsBaromVisibWave heightAir tempDewpointWater temp
2018-Jan-03 01:20N 32°06' W 091°06'2 7.0
2018-Jan-03 01:00N 32°08' W 091°04'5 9.9
2018-Jan-03 00:29N 32°11' W 090°60'612.8
2018-Jan-03 00:00N 32°17' W 090°57'5 9.9
2018-Jan-02 23:30N 32°21' W 090°53'0 0.6
2018-Jan-02 23:00N 32°21' W 090°53'0 0.0
2018-Jan-02 22:30N 32°21' W 090°53'0 0.0
2018-Jan-02 22:00N 32°21' W 090°53'0 0.0
2018-Jan-02 21:30N 32°21' W 090°53'0 0.0
2018-Jan-02 21:00N 32°21' W 090°53'0 0.0
2018-Jan-02 20:30N 32°21' W 090°53'0 0.0
2018-Jan-02 20:00N 32°21' W 090°53'0 0.0
2018-Jan-02 19:27N 32°21' W 090°53'0 0.0
2018-Jan-02 18:54N 32°21' W 090°53'0 0.0
2018-Jan-02 18:30N 32°21' W 090°53'0 0.0
2018-Jan-02 18:00N 32°21' W 090°53'0 0.0
2018-Jan-02 17:30N 32°21' W 090°53'0 0.0
2018-Jan-02 17:00N 32°21' W 090°53'0 0.0
2018-Jan-02 16:30N 32°21' W 090°53'0 0.0
2018-Jan-02 16:00N 32°21' W 090°53'0 0.0
2018-Jan-02 15:30N 32°21' W 090°53'0 0.0
2018-Jan-02 15:00N 32°21' W 090°53'0 0.0
2018-Jan-02 14:30N 32°21' W 090°53'0 0.0
2018-Jan-02 14:00N 32°21' W 090°53'0 0.0
2018-Jan-02 13:30N 32°21' W 090°53'0 0.5
2018-Jan-02 13:00N 32°21' W 090°53'3 5.1
2018-Jan-02 12:30N 32°19' W 090°55'3 5.7
2018-Jan-02 12:00N 32°17' W 090°57'3 5.5
2018-Jan-02 11:30N 32°14' W 090°59'3 5.8
2018-Jan-02 11:00N 32°12' W 090°60'4 7.0
2018-Jan-02 10:30N 32°08' W 091°00'2 4.5
2018-Jan-02 10:00N 32°07' W 091°03'2 4.4
2018-Jan-02 09:31N 32°08' W 091°06'6 6.3
2018-Jan-02 08:29N 32°02' W 091°04'4 6.6
2018-Jan-02 07:56N 31°59' W 091°07'4 7.5
2018-Jan-02 07:28N 31°58' W 091°11'  
2017-Dec-26 22:15N 32°06' W 091°06'2 8.2
2017-Dec-26 22:00N 32°08' W 091°05'5 8.8
2017-Dec-26 21:29N 32°09' W 091°00'611.7
2017-Dec-26 21:00N 32°15' W 090°59'611.6
2017-Dec-26 20:30N 32°19' W 090°54'2 4.2
2017-Dec-26 20:00N 32°21' W 090°53'0 0.0
2017-Dec-26 19:30N 32°21' W 090°53'0 0.0
2017-Dec-26 19:00N 32°21' W 090°53'0 0.0
2017-Dec-26 18:30N 32°21' W 090°53'0 0.0
2017-Dec-26 18:00N 32°21' W 090°53'0 0.0
2017-Dec-26 17:30N 32°21' W 090°53'0 0.0
2017-Dec-26 17:00N 32°21' W 090°53'0 0.0
2017-Dec-26 16:30N 32°21' W 090°53'0 0.0
2017-Dec-26 16:00N 32°21' W 090°53'0 0.0
2017-Dec-26 15:30N 32°21' W 090°53'0 0.0
2017-Dec-26 15:00N 32°21' W 090°53'0 0.0
2017-Dec-26 14:30N 32°21' W 090°53'0 0.0
2017-Dec-26 14:00N 32°21' W 090°53'0 0.0
2017-Dec-26 13:30N 32°21' W 090°53'0 0.0
2017-Dec-26 13:00N 32°21' W 090°53'0 0.0
2017-Dec-26 12:30N 32°21' W 090°53'0 0.0
2017-Dec-26 12:00N 32°21' W 090°53'0 0.0
2017-Dec-26 11:30N 32°21' W 090°53'0 0.0
2017-Dec-26 11:00N 32°21' W 090°53'0 0.0
2017-Dec-26 10:30N 32°21' W 090°53'0 0.0
2017-Dec-26 10:00N 32°21' W 090°53'0 0.0
2017-Dec-26 09:30N 32°21' W 090°53'0 0.0
2017-Dec-26 09:00N 32°21' W 090°53'0 0.0
2017-Dec-26 08:30N 32°21' W 090°53'0 0.0
2017-Dec-26 08:00N 32°21' W 090°53'0 0.0
2017-Dec-26 07:30N 32°21' W 090°53'0 0.0
2017-Dec-26 07:00N 32°21' W 090°53'0 0.0
2017-Dec-26 06:30N 32°21' W 090°53'0 0.0
2017-Dec-26 06:00N 32°21' W 090°53'0 0.0
2017-Dec-26 05:30N 32°21' W 090°53'0 0.0
2017-Dec-26 05:00N 32°21' W 090°53'0 0.0
2017-Dec-26 04:27N 32°21' W 090°53'0 0.0
2017-Dec-26 04:00N 32°21' W 090°53'0 0.0
2017-Dec-26 03:27N 32°21' W 090°53'0 0.0
2017-Dec-26 02:59N 32°21' W 090°53'0 0.0
2017-Dec-26 02:30N 32°21' W 090°53'0 0.0
2017-Dec-26 02:00N 32°21' W 090°53'0 0.0
2017-Dec-26 01:29N 32°21' W 090°53'0 0.0
2017-Dec-26 00:59N 32°21' W 090°53'0 0.0
2017-Dec-26 00:30N 32°21' W 090°53'0 0.0
2017-Dec-25 23:59N 32°21' W 090°53'0 0.0
2017-Dec-25 23:29N 32°21' W 090°53'0 0.0
2017-Dec-25 22:59N 32°21' W 090°53'0 0.0
2017-Dec-25 22:29N 32°21' W 090°53'0 0.0
2017-Dec-25 21:59N 32°21' W 090°53'0 0.3
2017-Dec-25 21:31N 32°21' W 090°53'4 7.5
2017-Dec-25 21:00N 32°18' W 090°56'4 8.9
2017-Dec-25 20:30N 32°14' W 090°59'5 9.2
2017-Dec-25 20:00N 32°10' W 091°00'6 7.0
2017-Dec-25 19:13N 32°08' W 091°06'  

Dump ship's entire track history